Time;durP1;ratioP1;P1;durP2;ratioP2;P2;SDS_P1;SDS_P2;PMS_P1;PMS_P2;Temp;Humidity;BMP_temperature;BMP_pressure;BME280_temperature;BME280_humidity;BME280_pressure;Samples;Min_cycle;Max_cycle;Signal;HPM_P1;HPM_P2
2022/10/29 00:01:34;;;;;;;10.23;6.30;;;17.60;99.90;;;;;;5013941;28;20030;-81
2022/10/29 00:03:59;;;;;;;8.95;5.97;;;17.60;99.90;;;;;;5013890;28;20153;-81
2022/10/29 00:06:25;;;;;;;10.63;6.57;;;17.60;99.90;;;;;;5013833;28;20049;-81
2022/10/29 00:08:51;;;;;;;7.93;5.93;;;17.50;99.90;;;;;;5013386;28;20019;-81
2022/10/29 00:11:20;;;;;;;10.15;6.30;;;17.60;99.90;;;;;;5013361;28;20108;-81
2022/10/29 00:13:47;;;;;;;9.60;5.63;;;17.60;99.90;;;;;;5013482;28;20045;-81
2022/10/29 00:16:19;;;;;;;9.77;5.93;;;17.50;99.90;;;;;;5013521;28;20034;-81
2022/10/29 00:18:45;;;;;;;8.55;6.03;;;17.50;99.90;;;;;;5013885;28;20022;-81
2022/10/29 00:21:13;;;;;;;7.13;5.53;;;17.60;99.90;;;;;;5013258;28;20018;-81
2022/10/29 00:23:39;;;;;;;9.65;5.68;;;17.70;99.90;;;;;;5013089;28;20029;-81
2022/10/29 00:26:06;;;;;;;8.40;5.60;;;17.60;99.90;;;;;;5013224;28;20054;-80
2022/10/29 00:28:32;;;;;;;9.98;5.68;;;17.70;99.90;;;;;;5012964;28;20022;-81
2022/10/29 00:31:03;;;;;;;8.88;6.18;;;17.60;99.90;;;;;;5028630;28;20046;-81
2022/10/29 00:33:28;;;;;;;10.00;5.78;;;17.60;99.90;;;;;;5013250;28;20018;-81
2022/10/29 00:36:03;;;;;;;11.60;5.82;;;17.50;99.90;;;;;;5013273;28;20569;-81
2022/10/29 00:38:33;;;;;;;8.68;5.97;;;17.60;99.90;;;;;;5012961;28;20021;-81
2022/10/29 00:41:00;;;;;;;7.95;5.55;;;17.50;99.90;;;;;;5013087;28;20076;-81
2022/10/29 00:43:26;;;;;;;11.50;6.55;;;17.50;99.90;;;;;;5013150;28;20112;-81
2022/10/29 00:46:08;;;;;;;7.15;5.45;;;17.50;99.90;;;;;;5012717;28;20025;-81
2022/10/29 00:48:37;;;;;;;8.45;5.63;;;17.40;99.90;;;;;;5013072;28;20056;-81
2022/10/29 00:51:07;;;;;;;8.48;5.45;;;17.50;99.90;;;;;;5012890;28;20095;-81
2022/10/29 00:53:38;;;;;;;10.73;5.28;;;17.50;99.90;;;;;;5012763;28;20022;-81
2022/10/29 00:56:04;;;;;;;8.88;5.30;;;17.40;99.90;;;;;;5013220;28;20076;-81
2022/10/29 00:58:30;;;;;;;7.57;5.20;;;17.40;99.90;;;;;;5012719;28;20036;-81
2022/10/29 01:00:58;;;;;;;12.68;5.38;;;17.50;99.90;;;;;;5012866;28;20030;-81
2022/10/29 01:03:24;;;;;;;8.20;5.60;;;17.50;99.90;;;;;;5012780;28;20013;-81
2022/10/29 01:05:52;;;;;;;13.82;6.57;;;17.40;99.90;;;;;;5012680;28;20037;-81
2022/10/29 01:08:18;;;;;;;9.07;5.30;;;17.40;99.90;;;;;;5012375;28;20016;-81
2022/10/29 01:11:20;;;;;;;9.88;5.95;;;17.40;99.90;;;;;;5012753;28;20030;-81
2022/10/29 01:13:54;;;;;;;9.88;5.75;;;17.50;99.90;;;;;;5012767;28;20025;-81
2022/10/29 01:16:26;;;;;;;7.88;5.53;;;17.40;99.90;;;;;;5012438;28;20037;-81
2022/10/29 01:19:08;;;;;;;10.32;5.78;;;17.50;99.90;;;;;;5012611;28;20029;-81
2022/10/29 01:21:56;;;;;;;8.80;5.55;;;17.40;99.90;;;;;;5012606;28;20022;-81
2022/10/29 01:24:43;;;;;;;10.57;5.63;;;17.30;99.90;;;;;;5012092;28;20022;-81
2022/10/29 01:27:39;;;;;;;10.43;6.35;;;17.40;99.90;;;;;;5012248;28;20113;-81
2022/10/29 01:30:38;;;;;;;13.32;6.97;;;17.40;99.90;;;;;;5012449;28;20026;-81
2022/10/29 01:33:22;;;;;;;11.80;6.75;;;17.30;99.90;;;;;;4989868;28;20068;-81
2022/10/29 01:36:11;;;;;;;8.95;6.70;;;17.30;99.90;;;;;;4990162;28;20082;-81
2022/10/29 01:38:36;;;;;;;11.27;7.53;;;17.30;99.90;;;;;;4990155;28;20034;-81
2022/10/29 01:41:06;;;;;;;9.77;6.40;;;17.40;99.90;;;;;;4989686;28;20061;-81
2022/10/29 01:43:40;;;;;;;8.98;6.10;;;17.40;99.90;;;;;;4990220;28;20039;-81
2022/10/29 01:46:14;;;;;;;8.82;6.03;;;17.30;99.90;;;;;;4973974;28;20030;-81
2022/10/29 01:48:44;;;;;;;7.97;5.45;;;17.30;99.90;;;;;;4989980;28;20022;-81
2022/10/29 01:51:19;;;;;;;11.35;7.05;;;17.30;99.90;;;;;;4973609;28;20515;-81
2022/10/29 01:53:45;;;;;;;9.52;6.13;;;17.30;99.90;;;;;;4989981;28;20022;-81
2022/10/29 01:56:11;;;;;;;10.27;6.15;;;17.20;99.90;;;;;;4990051;28;20064;-81
2022/10/29 01:58:40;;;;;;;12.30;6.20;;;17.30;99.90;;;;;;4993909;28;20101;-81
2022/10/29 02:01:38;;;;;;;8.65;6.00;;;17.30;99.90;;;;;;4994146;28;20030;-80
2022/10/29 02:04:41;;;;;;;9.30;6.07;;;17.30;99.90;;;;;;4994018;28;20061;-81
2022/10/29 02:07:25;;;;;;;10.18;6.35;;;17.30;99.90;;;;;;4993790;28;20077;-81
2022/10/29 02:10:26;;;;;;;11.25;6.20;;;17.30;99.90;;;;;;5001283;28;20034;-81
2022/10/29 02:12:53;;;;;;;7.95;6.38;;;17.30;99.90;;;;;;4954917;29;20035;-81
2022/10/29 02:15:34;;;;;;;9.85;5.93;;;17.30;99.90;;;;;;4955043;29;20035;-81
2022/10/29 02:18:02;;;;;;;10.07;6.03;;;17.30;99.90;;;;;;4955227;29;20027;-81
2022/10/29 02:20:28;;;;;;;10.25;5.45;;;17.30;99.90;;;;;;4955065;29;20047;-81
2022/10/29 02:22:54;;;;;;;10.85;6.35;;;17.30;99.90;;;;;;4954782;29;20027;-81
2022/10/29 02:25:20;;;;;;;12.35;6.55;;;17.30;99.90;;;;;;4954420;29;20054;-81
2022/10/29 02:27:46;;;;;;;14.13;6.60;;;17.30;99.90;;;;;;4954740;29;20035;-81
2022/10/29 02:30:12;;;;;;;10.35;6.88;;;17.30;99.90;;;;;;4954929;29;20106;-81
2022/10/29 02:32:38;;;;;;;10.65;6.35;;;17.30;99.90;;;;;;4954610;29;20441;-81
2022/10/29 02:35:04;;;;;;;9.55;6.35;;;17.30;99.90;;;;;;4954750;29;20054;-81
2022/10/29 02:37:30;;;;;;;10.70;6.60;;;17.30;99.90;;;;;;4953313;29;20031;-81
2022/10/29 02:39:56;;;;;;;9.88;6.32;;;17.30;99.90;;;;;;4935220;29;20548;-81
2022/10/29 02:42:21;;;;;;;12.15;6.75;;;17.20;99.90;;;;;;4935358;29;20119;-81
2022/10/29 02:44:47;;;;;;;7.47;6.30;;;17.20;99.90;;;;;;4935439;29;20043;-81
2022/10/29 02:47:13;;;;;;;9.35;6.65;;;17.30;99.90;;;;;;4975339;28;20038;-81
2022/10/29 02:49:39;;;;;;;15.40;7.63;;;17.20;99.90;;;;;;5002418;28;20022;-81
2022/10/29 02:52:05;;;;;;;10.20;6.28;;;17.20;99.90;;;;;;5015547;28;20022;-81
2022/10/29 02:54:30;;;;;;;9.73;6.50;;;17.10;99.90;;;;;;5014756;28;20407;-81
2022/10/29 02:56:56;;;;;;;10.50;6.90;;;17.20;99.90;;;;;;5015102;28;20033;-81
2022/10/29 02:59:22;;;;;;;9.18;5.57;;;17.20;99.90;;;;;;5015185;28;20030;-81
2022/10/29 03:01:48;;;;;;;10.80;6.75;;;17.20;99.90;;;;;;5014959;28;20407;-81
2022/10/29 03:04:14;;;;;;;8.70;5.50;;;17.20;99.90;;;;;;5015012;28;20038;-81
2022/10/29 03:06:40;;;;;;;6.93;5.68;;;17.10;99.90;;;;;;5014863;28;20383;-81
2022/10/29 03:09:05;;;;;;;8.25;5.70;;;17.10;99.90;;;;;;5013088;28;20025;-81
2022/10/29 03:11:32;;;;;;;9.85;5.55;;;17.00;99.90;;;;;;5014678;28;20056;-81
2022/10/29 03:13:58;;;;;;;6.38;5.32;;;17.10;99.90;;;;;;5014720;28;20045;-81
2022/10/29 03:16:23;;;;;;;8.95;5.68;;;17.10;99.90;;;;;;5014648;28;20472;-81
2022/10/29 03:18:49;;;;;;;8.43;5.25;;;17.00;99.90;;;;;;5014776;28;20018;-81
2022/10/29 03:21:15;;;;;;;7.50;5.75;;;17.00;99.90;;;;;;5014691;28;20473;-81
2022/10/29 03:23:40;;;;;;;10.05;5.68;;;17.00;99.90;;;;;;5014093;28;20392;-81
2022/10/29 03:26:07;;;;;;;9.57;5.50;;;17.00;99.90;;;;;;5014368;28;20070;-81
2022/10/29 03:28:33;;;;;;;7.70;5.85;;;16.90;99.90;;;;;;5014314;28;20018;-81
2022/10/29 03:30:59;;;;;;;8.02;5.18;;;16.90;99.90;;;;;;5014585;28;20030;-81
2022/10/29 03:33:25;;;;;;;5.88;4.80;;;16.90;99.90;;;;;;5014228;28;20181;-81
2022/10/29 03:36:00;;;;;;;7.32;4.85;;;16.90;99.90;;;;;;5014446;28;20033;-81
2022/10/29 03:38:26;;;;;;;10.25;5.80;;;16.90;99.90;;;;;;5004861;28;20026;-80
2022/10/29 03:40:52;;;;;;;7.93;5.60;;;16.90;99.90;;;;;;4994512;28;20523;-81
2022/10/29 03:43:18;;;;;;;10.15;5.35;;;17.00;99.90;;;;;;4994735;28;20507;-81
2022/10/29 03:45:52;;;;;;;7.05;6.18;;;16.90;99.90;;;;;;4994541;28;20034;-81
2022/10/29 03:48:18;;;;;;;12.85;6.05;;;17.00;99.90;;;;;;4994567;28;20031;-81
2022/10/29 03:50:44;;;;;;;7.35;5.70;;;17.00;99.90;;;;;;5009959;28;20029;-81
2022/10/29 03:53:10;;;;;;;11.05;5.40;;;16.90;99.90;;;;;;5013451;28;20601;-81
2022/10/29 03:55:36;;;;;;;10.52;6.03;;;16.90;99.90;;;;;;5014142;28;20025;-81
2022/10/29 03:58:01;;;;;;;11.90;5.85;;;16.90;99.90;;;;;;5014192;28;20029;-81
2022/10/29 04:00:27;;;;;;;7.38;5.40;;;16.90;99.90;;;;;;5011834;28;20041;-81
2022/10/29 04:02:53;;;;;;;8.10;5.68;;;16.80;99.90;;;;;;5013999;28;20024;-81
2022/10/29 04:05:18;;;;;;;7.93;5.78;;;16.80;99.90;;;;;;5013300;28;20447;-81
2022/10/29 04:07:44;;;;;;;7.22;5.45;;;16.90;99.90;;;;;;5013735;28;20065;-81
2022/10/29 04:10:10;;;;;;;9.25;6.18;;;16.80;99.90;;;;;;5013508;28;20021;-81
2022/10/29 04:12:35;;;;;;;11.10;6.88;;;16.90;99.90;;;;;;5013688;28;20033;-81
2022/10/29 04:15:01;;;;;;;12.60;6.22;;;16.90;99.90;;;;;;5013770;28;20471;-81
2022/10/29 04:17:27;;;;;;;7.50;6.07;;;16.80;99.90;;;;;;5013606;28;20036;-81
2022/10/29 04:19:52;;;;;;;7.65;6.05;;;16.80;99.90;;;;;;5013042;28;20561;-81
2022/10/29 04:22:18;;;;;;;8.77;5.53;;;16.70;99.90;;;;;;5013646;28;20386;-81
2022/10/29 04:24:44;;;;;;;10.52;5.32;;;16.70;99.90;;;;;;5012912;28;20266;-81
2022/10/29 04:27:09;;;;;;;9.15;6.03;;;16.70;99.90;;;;;;5013247;28;20523;-81
2022/10/29 04:29:35;;;;;;;9.35;5.50;;;16.80;99.90;;;;;;5013230;28;20495;-81
2022/10/29 04:32:01;;;;;;;7.50;5.38;;;16.80;99.90;;;;;;5013227;28;20083;-81
2022/10/29 04:34:26;;;;;;;10.52;6.03;;;16.90;99.90;;;;;;5013126;28;20026;-81
2022/10/29 04:36:52;;;;;;;11.02;5.72;;;16.90;99.90;;;;;;5013089;28;20437;-81
2022/10/29 04:39:18;;;;;;;8.48;5.65;;;16.90;99.90;;;;;;4997004;28;20026;-81
2022/10/29 04:41:47;;;;;;;10.80;6.00;;;16.90;99.90;;;;;;4993238;28;20400;-81
2022/10/29 04:44:13;;;;;;;11.70;5.82;;;16.80;99.90;;;;;;4993620;28;20109;-81
2022/10/29 04:46:38;;;;;;;12.68;6.93;;;16.80;99.90;;;;;;4993389;28;20034;-81
2022/10/29 04:49:04;;;;;;;10.48;5.75;;;16.90;99.90;;;;;;4995370;28;20023;-81
2022/10/29 04:51:30;;;;;;;9.85;6.65;;;16.80;99.90;;;;;;5013138;28;20080;-81
2022/10/29 04:53:55;;;;;;;10.40;6.85;;;16.70;99.90;;;;;;5012699;28;20053;-81
2022/10/29 04:56:21;;;;;;;11.93;6.95;;;16.70;99.90;;;;;;5013043;28;20026;-81
2022/10/29 04:58:50;;;;;;;10.18;6.00;;;16.70;99.90;;;;;;5013094;28;20022;-81
2022/10/29 05:01:16;;;;;;;8.80;6.05;;;16.70;99.90;;;;;;5011814;28;20026;-81
2022/10/29 05:03:41;;;;;;;10.38;6.00;;;16.70;99.90;;;;;;5012499;28;20427;-81
2022/10/29 05:06:07;;;;;;;10.45;6.55;;;16.70;99.90;;;;;;5006503;28;20034;-80
2022/10/29 05:08:33;;;;;;;11.80;6.50;;;16.70;99.90;;;;;;4993011;28;20504;-81
2022/10/29 05:11:03;;;;;;;9.68;5.95;;;16.70;99.90;;;;;;5005927;28;20052;-81
2022/10/29 05:13:30;;;;;;;8.60;5.72;;;16.70;99.90;;;;;;5012839;28;20022;-81
2022/10/29 05:15:55;;;;;;;11.05;5.97;;;16.70;99.90;;;;;;5012652;28;20072;-81
2022/10/29 05:18:21;;;;;;;8.50;5.70;;;16.70;99.90;;;;;;5012172;28;20464;-81
2022/10/29 05:20:47;;;;;;;8.13;5.35;;;16.70;99.90;;;;;;5012769;28;20383;-81
2022/10/29 05:23:13;;;;;;;8.20;5.45;;;16.70;99.90;;;;;;5012135;28;20048;-81
2022/10/29 05:25:40;;;;;;;11.93;6.15;;;16.70;99.90;;;;;;5011874;28;20148;-81
2022/10/29 05:28:13;;;;;;;6.97;5.32;;;16.70;99.90;;;;;;5012356;28;20026;-81
2022/10/29 05:30:39;;;;;;;10.20;5.70;;;16.70;99.90;;;;;;5012427;28;20069;-81
2022/10/29 05:33:09;;;;;;;9.57;6.05;;;16.70;99.90;;;;;;5011353;28;20014;-81
2022/10/29 05:35:35;;;;;;;9.77;6.00;;;16.70;99.90;;;;;;5012435;28;20029;-81
2022/10/29 05:38:02;;;;;;;12.60;6.60;;;16.70;99.90;;;;;;5012332;28;20387;-81
2022/10/29 05:40:28;;;;;;;9.02;5.88;;;16.70;99.90;;;;;;5012159;28;20034;-81
2022/10/29 05:42:54;;;;;;;8.93;6.13;;;16.70;99.90;;;;;;5012287;28;20054;-81
2022/10/29 05:45:20;;;;;;;7.53;6.13;;;16.60;99.90;;;;;;5011928;28;20074;-81
2022/10/29 05:47:45;;;;;;;8.43;6.30;;;16.60;99.90;;;;;;5011990;28;20018;-81
2022/10/29 05:50:12;;;;;;;10.00;6.30;;;16.60;99.90;;;;;;5012195;28;20502;-81
2022/10/29 05:52:38;;;;;;;5.95;4.90;;;16.70;99.90;;;;;;5012281;28;20596;-81
2022/10/29 05:55:04;;;;;;;10.07;5.93;;;16.70;99.90;;;;;;5011999;28;20545;-81
2022/10/29 05:57:30;;;;;;;12.30;6.35;;;16.70;99.90;;;;;;5012195;28;20041;-81
2022/10/29 05:59:56;;;;;;;10.57;6.15;;;16.70;99.90;;;;;;5012411;28;20030;-81
2022/10/29 06:02:22;;;;;;;11.50;6.35;;;16.70;99.90;;;;;;5011704;28;20431;-81
2022/10/29 06:04:47;;;;;;;12.15;6.38;;;16.70;99.90;;;;;;5012163;28;20057;-81
2022/10/29 06:07:13;;;;;;;7.20;5.95;;;16.70;99.90;;;;;;4996945;28;20037;-81
2022/10/29 06:09:39;;;;;;;10.55;5.97;;;16.70;99.90;;;;;;5003007;28;20064;-81
2022/10/29 06:12:05;;;;;;;5.72;5.03;;;16.70;99.90;;;;;;5027076;28;20052;-81
2022/10/29 06:14:31;;;;;;;8.50;6.15;;;16.70;99.90;;;;;;5012311;28;20030;-81
2022/10/29 06:16:57;;;;;;;11.25;6.45;;;16.70;99.90;;;;;;5011906;28;20553;-81
2022/10/29 06:19:23;;;;;;;9.48;6.68;;;16.70;99.90;;;;;;5011692;28;20083;-81
2022/10/29 06:21:48;;;;;;;7.97;5.95;;;16.60;99.90;;;;;;5011989;28;20030;-81
2022/10/29 06:24:14;;;;;;;10.45;6.25;;;16.60;99.90;;;;;;5011434;28;20518;-81
2022/10/29 06:26:40;;;;;;;10.30;6.05;;;16.70;99.90;;;;;;5026774;28;20095;-81
2022/10/29 06:29:06;;;;;;;8.85;5.90;;;16.70;99.90;;;;;;5011961;28;20022;-81
2022/10/29 06:31:32;;;;;;;10.35;5.80;;;16.60;99.90;;;;;;5011579;28;20022;-81
2022/10/29 06:33:58;;;;;;;7.63;5.88;;;16.60;99.90;;;;;;5012026;28;20057;-81
2022/10/29 06:36:23;;;;;;;10.90;6.22;;;16.60;99.90;;;;;;5011808;28;20045;-81
2022/10/29 06:38:49;;;;;;;13.30;6.35;;;16.70;99.90;;;;;;4999260;28;20395;-81
2022/10/29 06:41:15;;;;;;;12.88;6.20;;;16.70;99.90;;;;;;4991978;28;20061;-81
2022/10/29 06:43:41;;;;;;;8.65;5.63;;;16.70;99.90;;;;;;4993942;28;20022;-81
2022/10/29 06:46:07;;;;;;;10.13;6.03;;;16.70;99.90;;;;;;4995526;28;20420;-81
2022/10/29 06:48:33;;;;;;;13.40;6.57;;;16.70;99.90;;;;;;4996006;28;20027;-81
2022/10/29 06:50:59;;;;;;;10.45;6.63;;;16.80;99.90;;;;;;5013491;28;20064;-81
2022/10/29 06:53:26;;;;;;;9.98;6.40;;;16.80;99.90;;;;;;5014983;28;20028;-81
2022/10/29 06:55:52;;;;;;;8.98;6.40;;;16.80;99.90;;;;;;5015041;28;20013;-81
2022/10/29 06:58:20;;;;;;;9.18;6.30;;;16.80;99.90;;;;;;5014926;28;20034;-81
2022/10/29 07:00:46;;;;;;;10.70;6.45;;;16.80;99.90;;;;;;5015203;28;20022;-81
2022/10/29 07:03:13;;;;;;;10.65;6.95;;;16.90;99.90;;;;;;5014748;28;20038;-81
2022/10/29 07:05:40;;;;;;;8.48;6.72;;;16.90;99.90;;;;;;5014657;28;20021;-81
2022/10/29 07:08:05;;;;;;;9.40;6.25;;;17.00;99.90;;;;;;5014910;28;20022;-81
2022/10/29 07:10:32;;;;;;;12.82;7.47;;;17.00;99.90;;;;;;5014412;28;20028;-81
2022/10/29 07:12:58;;;;;;;9.60;6.80;;;17.00;99.90;;;;;;5014682;28;20026;-81
2022/10/29 07:15:25;;;;;;;14.50;7.28;;;17.10;99.90;;;;;;5014653;28;20111;-81
2022/10/29 07:18:02;;;;;;;12.32;6.63;;;17.10;99.90;;;;;;5014824;28;20065;-81
2022/10/29 07:20:30;;;;;;;11.18;7.03;;;17.10;99.90;;;;;;5014630;28;20029;-80
2022/10/29 07:22:56;;;;;;;10.88;6.55;;;17.20;99.90;;;;;;5014783;28;20153;-80
2022/10/29 07:25:22;;;;;;;8.75;6.50;;;17.20;99.90;;;;;;5013734;28;20509;-80
2022/10/29 07:27:49;;;;;;;13.90;7.88;;;17.30;99.90;;;;;;5014824;28;20030;-80
2022/10/29 07:30:15;;;;;;;10.55;6.43;;;17.30;99.90;;;;;;5014105;28;20022;-81
2022/10/29 07:32:41;;;;;;;10.75;6.65;;;17.30;99.90;;;;;;5014851;28;20069;-80
2022/10/29 07:35:07;;;;;;;13.50;7.35;;;17.40;99.90;;;;;;5014316;28;20499;-81
2022/10/29 07:37:33;;;;;;;10.57;6.47;;;17.40;99.90;;;;;;5014468;28;20132;-80
2022/10/29 07:39:59;;;;;;;10.10;6.55;;;17.50;99.90;;;;;;5014047;28;20053;-80
2022/10/29 07:42:24;;;;;;;10.00;6.43;;;17.60;99.90;;;;;;5014049;28;20069;-80
2022/10/29 07:44:50;;;;;;;11.07;6.38;;;17.60;99.90;;;;;;5014183;28;20030;-81
2022/10/29 07:47:16;;;;;;;12.48;7.05;;;17.60;99.90;;;;;;5012834;28;20526;-81
2022/10/29 07:49:41;;;;;;;9.30;6.38;;;17.60;99.90;;;;;;5014093;28;20041;-81
2022/10/29 07:52:08;;;;;;;12.30;6.20;;;17.70;99.90;;;;;;5014048;28;20049;-81
2022/10/29 07:54:34;;;;;;;11.07;7.30;;;17.80;99.90;;;;;;5013011;28;20033;-81
2022/10/29 07:57:00;;;;;;;12.57;7.18;;;17.90;99.90;;;;;;5014105;28;20026;-81
2022/10/29 07:59:26;;;;;;;9.07;6.05;;;18.00;99.90;;;;;;5013793;28;20100;-81
2022/10/29 08:01:51;;;;;;;7.95;5.80;;;18.10;99.90;;;;;;5014064;28;20026;-81
2022/10/29 08:04:17;;;;;;;11.75;6.38;;;18.20;99.90;;;;;;5013676;28;20037;-81
2022/10/29 08:06:43;;;;;;;9.20;5.97;;;18.30;99.90;;;;;;5014021;28;20383;-81
2022/10/29 08:09:11;;;;;;;11.93;6.05;;;18.50;99.90;;;;;;5013643;28;20025;-81
2022/10/29 08:11:36;;;;;;;8.93;5.53;;;18.60;99.90;;;;;;5013343;28;20069;-81
2022/10/29 08:14:02;;;;;;;13.35;6.68;;;18.80;99.90;;;;;;5013828;28;20514;-81
2022/10/29 08:16:28;;;;;;;13.32;6.22;;;18.80;99.90;;;;;;5028888;28;20068;-81
2022/10/29 08:18:54;;;;;;;10.82;6.50;;;19.10;99.90;;;;;;5014050;28;20053;-81
2022/10/29 08:21:20;;;;;;;12.48;6.70;;;19.30;99.90;;;;;;5013487;28;20091;-81
2022/10/29 08:23:46;;;;;;;15.07;6.75;;;20.20;99.90;;;;;;5013621;28;20029;-81
2022/10/29 08:26:12;;;;;;;10.40;6.95;;;20.80;99.90;;;;;;5012725;28;20045;-81
2022/10/29 08:28:37;;;;;;;14.15;7.05;;;21.30;99.90;;;;;;5013469;28;20467;-81
2022/10/29 08:31:03;;;;;;;13.75;7.40;;;21.40;99.90;;;;;;5013371;28;20399;-82
2022/10/29 08:33:29;;;;;;;7.95;6.53;;;20.90;99.90;;;;;;5013228;28;20026;-82
2022/10/29 08:35:55;;;;;;;13.55;7.10;;;20.20;99.90;;;;;;5013378;28;20036;-81
2022/10/29 08:38:24;;;;;;;12.65;6.82;;;19.80;99.90;;;;;;5004435;28;20026;-82
2022/10/29 08:41:36;;;;;;;10.68;7.47;;;19.60;99.90;;;;;;4993214;28;20031;-82
2022/10/29 08:44:14;;;;;;;;;;;19.60;99.90;;;;;;4992860;28;20608;-82
2022/10/29 08:46:47;;;;;;;13.75;6.90;;;20.10;99.90;;;;;;4993438;28;19909;-81
2022/10/29 08:49:41;;;;;;;15.43;7.57;;;20.30;99.90;;;;;;4996629;28;20026;-81
2022/10/29 08:52:19;;;;;;;9.70;6.00;;;20.10;99.90;;;;;;5012956;28;20140;-82
2022/10/29 08:54:50;;;;;;;10.75;7.10;;;20.20;99.90;;;;;;5012925;28;20168;-82
2022/10/29 08:57:20;;;;;;;12.70;8.57;;;20.30;99.90;;;;;;5012605;28;20026;-82
2022/10/29 09:00:06;;;;;;;11.13;7.13;;;20.20;99.90;;;;;;5012794;28;20108;-82
2022/10/29 09:02:32;;;;;;;9.32;6.75;;;20.10;99.90;;;;;;5012851;28;20021;-82
2022/10/29 09:05:00;;;;;;;10.93;7.38;;;20.20;99.90;;;;;;5012848;28;20522;-82
2022/10/29 09:08:01;;;;;;;10.50;7.22;;;20.20;99.90;;;;;;5011872;28;20018;-82
2022/10/29 09:10:36;;;;;;;11.27;7.15;;;20.30;99.90;;;;;;5012037;28;20496;-82
2022/10/29 09:13:18;;;;;;;12.48;7.85;;;20.40;99.90;;;;;;5012546;28;20104;-82
2022/10/29 09:16:14;;;;;;;11.43;7.38;;;20.60;99.90;;;;;;5011463;28;20034;-82
2022/10/29 09:19:06;;;;;;;9.50;6.80;;;20.50;99.90;;;;;;5011387;28;20492;-82
2022/10/29 09:21:47;;;;;;;;;;;20.50;99.90;;;;;;5012822;28;20034;-82
2022/10/29 09:24:21;;;;;;;10.30;6.73;;;20.60;99.90;;;;;;5012267;28;19913;-82
2022/10/29 09:26:58;;;;;;;10.52;6.80;;;20.70;99.90;;;;;;5012212;28;20061;-82
2022/10/29 09:29:40;;;;;;;9.35;6.13;;;20.80;99.90;;;;;;5012711;28;20029;-82
2022/10/29 09:32:13;;;;;;;10.88;6.50;;;20.80;99.90;;;;;;5012369;28;20026;-82
2022/10/29 09:34:50;;;;;;;10.20;6.18;;;20.80;99.90;;;;;;5012382;28;20034;-82
2022/10/29 09:37:22;;;;;;;9.60;6.45;;;20.90;99.90;;;;;;5012394;28;20030;-82
2022/10/29 09:39:48;;;;;;;12.57;6.93;;;20.90;99.90;;;;;;4992495;28;20073;-82
2022/10/29 09:42:20;;;;;;;12.82;7.10;;;20.90;99.90;;;;;;4992566;28;20034;-82
2022/10/29 09:45:01;;;;;;;12.68;6.53;;;20.90;99.90;;;;;;4992544;28;20033;-82
2022/10/29 09:47:51;;;;;;;13.85;7.82;;;21.00;99.90;;;;;;4992408;28;20038;-82
2022/10/29 09:50:22;;;;;;;11.40;7.38;;;21.10;99.90;;;;;;5004478;28;20022;-82
2022/10/29 09:52:48;;;;;;;12.15;6.78;;;21.20;99.90;;;;;;5012461;28;20030;-82
2022/10/29 09:55:16;;;;;;;12.65;7.10;;;21.20;99.90;;;;;;5011465;28;20021;-82
2022/10/29 09:57:42;;;;;;;10.13;6.28;;;21.30;99.90;;;;;;5012188;28;20066;-82
2022/10/29 10:00:34;;;;;;;11.85;6.68;;;21.40;99.90;;;;;;5012345;28;20057;-82
2022/10/29 10:03:34;;;;;;;12.05;6.43;;;21.30;99.90;;;;;;5009161;28;20037;-82
2022/10/29 10:06:01;;;;;;;12.35;6.25;;;21.40;99.90;;;;;;5011821;28;20018;-82
2022/10/29 10:08:27;;;;;;;9.15;6.53;;;21.40;99.90;;;;;;5011715;28;20026;-82
2022/10/29 10:11:01;;;;;;;9.93;6.05;;;21.30;99.90;;;;;;5011705;28;20438;-82
2022/10/29 10:13:33;;;;;;;9.82;6.28;;;21.40;99.90;;;;;;5011915;28;20080;-82
2022/10/29 10:16:04;;;;;;;11.85;6.90;;;21.40;99.90;;;;;;5011974;28;20026;-82
2022/10/29 10:18:30;;;;;;;12.02;7.13;;;21.50;99.90;;;;;;5013837;28;20491;-82
2022/10/29 10:21:06;;;;;;;10.00;6.32;;;21.50;99.90;;;;;;5015907;28;20076;-82
2022/10/29 10:23:45;;;;;;;8.77;6.13;;;21.60;99.90;;;;;;5015470;28;20108;-82
2022/10/29 10:26:35;;;;;;;10.00;6.05;;;21.50;99.90;;;;;;5015080;28;20038;-82
2022/10/29 10:29:13;;;;;;;10.43;6.63;;;21.60;99.90;;;;;;5015777;28;20030;-82
2022/10/29 10:31:40;;;;;;;10.07;6.82;;;21.60;99.90;;;;;;5015546;28;20026;-82
2022/10/29 10:34:20;;;;;;;9.52;6.97;;;21.50;99.90;;;;;;5016074;28;20555;-82
2022/10/29 10:37:02;;;;;;;11.80;6.65;;;21.50;99.90;;;;;;5015507;28;20032;-82
2022/10/29 10:39:31;;;;;;;15.45;7.50;;;21.60;99.90;;;;;;5015130;28;20057;-82
2022/10/29 10:42:03;;;;;;;14.05;7.53;;;21.60;99.90;;;;;;5015218;28;20022;-82
2022/10/29 10:44:29;;;;;;;12.38;7.22;;;21.50;99.90;;;;;;5015402;28;20030;-82
2022/10/29 10:46:58;;;;;;;14.15;7.35;;;21.50;99.90;;;;;;5015410;28;20026;-82
2022/10/29 10:49:35;;;;;;;15.43;7.70;;;21.50;99.90;;;;;;5015333;28;20022;-82
2022/10/29 10:52:19;;;;;;;11.00;7.10;;;21.50;99.90;;;;;;5014930;28;20065;-82
2022/10/29 10:54:58;;;;;;;9.80;7.20;;;21.60;99.90;;;;;;5015152;28;20104;-82
2022/10/29 10:57:33;;;;;;;13.25;7.28;;;21.70;99.90;;;;;;5015077;28;20080;-82
2022/10/29 11:00:13;;;;;;;14.38;7.88;;;21.70;99.90;;;;;;5015113;28;20062;-82
2022/10/29 11:02:50;;;;;;;11.98;7.28;;;21.80;99.90;;;;;;5013510;28;20033;-82
2022/10/29 11:05:23;;;;;;;13.32;7.53;;;21.80;99.90;;;;;;5015095;28;20026;-82
2022/10/29 11:08:06;;;;;;;11.57;7.18;;;21.80;99.90;;;;;;5010033;28;20130;-82
2022/10/29 11:10:42;;;;;;;11.70;7.20;;;21.90;99.90;;;;;;4995363;28;20488;-82
2022/10/29 11:13:14;;;;;;;12.38;7.32;;;21.90;99.90;;;;;;4995057;28;20107;-82
2022/10/29 11:15:54;;;;;;;12.23;7.70;;;21.90;99.90;;;;;;4995273;28;20484;-82
2022/10/29 11:18:31;;;;;;;8.73;6.78;;;21.90;99.90;;;;;;4995402;28;20026;-82
2022/10/29 11:21:19;;;;;;;10.00;6.85;;;21.80;99.90;;;;;;4995190;28;20030;-82
2022/10/29 11:24:17;;;;;;;12.07;7.20;;;21.60;99.90;;;;;;4995027;28;20048;-82
2022/10/29 11:26:57;;;;;;;15.30;7.55;;;21.40;99.90;;;;;;4972771;28;20051;-82
2022/10/29 11:29:36;;;;;;;10.32;6.57;;;21.50;99.90;;;;;;4972095;28;20034;-82
2022/10/29 11:32:16;;;;;;;17.60;7.78;;;21.80;99.90;;;;;;4985837;28;20095;-82
2022/10/29 11:35:12;;;;;;;13.35;7.13;;;21.90;99.90;;;;;;5012288;28;20029;-83
2022/10/29 11:37:56;;;;;;;11.05;7.32;;;22.00;99.90;;;;;;5009004;28;20522;-82
2022/10/29 11:40:26;;;;;;;15.93;7.15;;;21.90;99.90;;;;;;4992421;28;20109;-82
2022/10/29 11:42:52;;;;;;;9.45;7.30;;;21.90;99.90;;;;;;4991946;28;20015;-82
2022/10/29 11:45:52;;;;;;;9.93;6.85;;;22.00;99.90;;;;;;4991946;28;20036;-83
2022/10/29 11:48:27;;;;;;;10.20;6.88;;;22.10;99.90;;;;;;4992187;28;20128;-82
2022/10/29 11:51:10;;;;;;;11.50;8.10;;;22.10;99.90;;;;;;5008727;28;20144;-82
2022/10/29 11:53:39;;;;;;;12.10;7.07;;;22.00;99.90;;;;;;5011376;28;20026;-82
2022/10/29 11:56:07;;;;;;;14.70;7.40;;;22.10;99.90;;;;;;5011685;28;20055;-82
2022/10/29 11:58:36;;;;;;;12.68;8.05;;;22.20;99.90;;;;;;5011484;28;20025;-82
2022/10/29 12:01:35;;;;;;;14.02;8.10;;;22.50;99.90;;;;;;5011543;28;20030;-83
2022/10/29 12:04:16;;;;;;;12.52;7.22;;;22.60;99.90;;;;;;5011970;28;20034;-83
2022/10/29 12:07:06;;;;;;;10.68;7.15;;;22.80;99.90;;;;;;5013804;28;20519;-82
2022/10/29 12:09:44;;;;;;;12.15;7.47;;;22.60;99.90;;;;;;5013491;28;20084;-82
2022/10/29 12:12:24;;;;;;;11.18;7.30;;;22.40;99.90;;;;;;5013757;28;20122;-82
2022/10/29 12:15:06;;;;;;;13.90;7.80;;;22.40;99.90;;;;;;5013995;28;20100;-83
2022/10/29 12:17:44;;;;;;;11.13;7.22;;;22.20;99.90;;;;;;5013447;28;20014;-82
2022/10/29 12:20:34;;;;;;;13.13;7.70;;;22.00;99.90;;;;;;5013693;28;20049;-82
2022/10/29 12:23:38;;;;;;;12.90;7.07;;;22.10;99.90;;;;;;5013454;28;20028;-82
2022/10/29 12:26:24;;;;;;;13.65;7.78;;;22.10;99.90;;;;;;5011455;28;20042;-82
2022/10/29 12:28:58;;;;;;;15.35;7.50;;;22.10;99.90;;;;;;5013660;28;20097;-82
2022/10/29 12:31:35;;;;;;;12.98;7.43;;;22.20;99.90;;;;;;5013607;28;20022;-83
2022/10/29 12:34:27;;;;;;;10.13;6.82;;;22.20;99.90;;;;;;5013590;28;20036;-82
2022/10/29 12:37:08;;;;;;;14.30;8.20;;;22.10;99.90;;;;;;5013346;28;20050;-82
2022/10/29 12:39:39;;;;;;;12.07;7.37;;;22.20;99.90;;;;;;5012837;28;20033;-82
2022/10/29 12:42:37;;;;;;;;;;;22.50;99.90;;;;;;5013369;28;20049;-82
2022/10/29 12:45:24;;;;;;;8.48;7.10;;;22.70;99.90;;;;;;5010845;28;19999;-81
2022/10/29 12:48:01;;;;;;;8.07;6.78;;;22.90;99.90;;;;;;5010249;28;20030;-81
2022/10/29 12:50:44;;;;;;;12.32;7.10;;;22.90;99.90;;;;;;5010586;28;20026;-81
2022/10/29 12:53:29;;;;;;;12.30;7.85;;;23.10;99.90;;;;;;5010594;28;20503;-81
2022/10/29 12:55:57;;;;;;;15.25;8.18;;;23.00;99.90;;;;;;5010387;28;20065;-81
2022/10/29 12:58:51;;;;;;;10.80;7.18;;;22.90;99.90;;;;;;5010496;28;20496;-81
2022/10/29 13:01:26;;;;;;;8.70;6.53;;;22.80;99.90;;;;;;5010302;28;20044;-82
2022/10/29 13:03:54;;;;;;;11.50;7.75;;;22.60;99.90;;;;;;5009974;28;20125;-81